Time;durP1;ratioP1;P1;durP2;ratioP2;P2;SDS_P1;SDS_P2;PMS_P1;PMS_P2;Temp;Humidity;BMP_temperature;BMP_pressure;BME280_temperature;BME280_humidity;BME280_pressure;Samples;Min_cycle;Max_cycle;Signal;HPM_P1;HPM_P2
2022/06/24 00:00:30;;;;;;;1.70;1.40;;;;;;;21.47;49.43;100602.69;6201608;28;20053;-77
2022/06/24 00:03:32;;;;;;;2.28;1.63;;;;;;;21.45;49.56;100602.03;6191218;28;20054;-78
2022/06/24 00:06:46;;;;;;;2.22;1.55;;;;;;;21.44;49.46;100600.38;6201875;28;20050;-76
2022/06/24 00:09:49;;;;;;;1.27;1.02;;;;;;;21.43;49.17;100592.47;6173700;28;20427;-78
2022/06/24 00:12:52;;;;;;;1.58;1.45;;;;;;;21.44;48.90;100589.66;6188319;28;20064;-78
2022/06/24 00:15:53;;;;;;;2.72;1.77;;;;;;;21.42;49.29;100585.47;6189611;28;20054;-76
2022/06/24 00:19:08;;;;;;;1.55;1.38;;;;;;;21.39;49.41;100588.44;6198039;28;20046;-77
2022/06/24 00:22:12;;;;;;;1.83;1.40;;;;;;;21.33;49.65;100575.69;6197660;28;20521;-76
2022/06/24 00:25:17;;;;;;;1.65;1.20;;;;;;;21.24;49.86;100574.75;6197556;28;20056;-77
2022/06/24 00:28:25;;;;;;;5.25;1.30;;;;;;;21.27;49.74;100582.47;6198113;28;20629;-77
2022/06/24 00:31:26;;;;;;;1.75;1.50;;;;;;;21.31;49.72;100567.84;6195749;28;20054;-76
2022/06/24 00:34:27;;;;;;;2.88;1.50;;;;;;;21.35;49.50;100571.03;6173213;28;20424;-77
2022/06/24 00:37:31;;;;;;;1.17;1.08;;;;;;;21.34;49.54;100564.00;6188502;28;20051;-77
2022/06/24 00:40:36;;;;;;;3.67;1.50;;;;;;;21.30;49.59;100566.13;6197359;28;20490;-77
2022/06/24 00:43:39;;;;;;;1.73;1.10;;;;;;;21.28;49.99;100562.78;6197664;28;20054;-77
2022/06/24 00:46:43;;;;;;;2.65;1.60;;;;;;;21.28;49.57;100560.94;6198474;28;20053;-76
2022/06/24 00:49:47;;;;;;;2.10;1.48;;;;;;;21.25;49.65;100555.88;6202597;28;20054;-77
2022/06/24 00:52:49;;;;;;;1.85;1.40;;;;;;;21.24;49.75;100548.03;6202453;28;20050;-76
2022/06/24 00:55:52;;;;;;;2.28;1.60;;;;;;;21.24;49.27;100548.03;6202093;28;20412;-76
2022/06/24 00:58:54;;;;;;;2.90;1.50;;;;;;;21.19;49.67;100545.00;6202325;28;20058;-77
2022/06/24 01:01:56;;;;;;;1.30;1.20;;;;;;;21.14;50.01;100541.94;6200614;28;20503;-76
2022/06/24 01:05:04;;;;;;;2.50;1.83;;;;;;;21.08;50.21;100529.22;6201479;28;20047;-77
2022/06/24 01:08:08;;;;;;;3.25;1.40;;;;;;;21.05;50.40;100532.19;6202711;28;20046;-77
2022/06/24 01:11:10;;;;;;;1.50;1.40;;;;;;;21.03;50.35;100530.53;6201768;28;20046;-77
2022/06/24 01:14:13;;;;;;;1.65;1.10;;;;;;;20.97;50.78;100528.44;6201686;28;20062;-76
2022/06/24 01:17:14;;;;;;;1.55;1.40;;;;;;;20.96;50.71;100524.09;6201904;28;20433;-77
2022/06/24 01:20:15;;;;;;;1.80;1.52;;;;;;;20.93;51.31;100523.56;6201953;28;20054;-77
2022/06/24 01:23:24;;;;;;;2.55;1.80;;;;;;;20.84;51.49;100513.81;6201930;28;20053;-78
2022/06/24 01:26:26;;;;;;;;;;;;;;;20.78;51.54;100513.44;6202115;28;20426;-76
2022/06/24 01:29:27;;;;;;;1.60;1.50;;;;;;;20.70;52.44;100508.00;6201720;28;19922;-77
2022/06/24 01:32:28;;;;;;;2.83;1.33;;;;;;;20.61;52.37;100505.41;6199432;28;20054;-77
2022/06/24 01:35:30;;;;;;;2.25;1.50;;;;;;;20.56;52.58;100497.88;6201220;28;20057;-76
2022/06/24 01:38:32;;;;;;;3.92;1.60;;;;;;;20.47;52.90;100494.28;6201639;28;20053;-75
2022/06/24 01:41:34;;;;;;;1.52;1.42;;;;;;;20.50;52.90;100488.66;6201184;28;20054;-76
2022/06/24 01:44:36;;;;;;;1.58;1.48;;;;;;;20.54;52.90;100485.69;6200940;28;20054;-77
2022/06/24 01:47:37;;;;;;;2.08;1.80;;;;;;;20.54;52.92;100485.69;6201485;28;20058;-77
2022/06/24 01:50:39;;;;;;;3.83;1.63;;;;;;;20.48;53.50;100484.44;6200826;28;20090;-76
2022/06/24 01:53:41;;;;;;;2.20;1.75;;;;;;;20.40;54.06;100482.50;6201304;28;20057;-77
2022/06/24 01:56:43;;;;;;;5.05;1.85;;;;;;;20.35;54.16;100473.25;6201068;28;20046;-76
2022/06/24 01:59:44;;;;;;;2.17;1.80;;;;;;;20.31;54.56;100471.91;6200475;28;20054;-76
2022/06/24 02:02:45;;;;;;;2.30;1.70;;;;;;;20.24;55.37;100467.16;6200484;28;20050;-75
2022/06/24 02:05:47;;;;;;;3.25;1.95;;;;;;;20.25;55.39;100460.00;6176894;28;20054;-77
2022/06/24 02:08:50;;;;;;;1.98;1.85;;;;;;;20.19;56.04;100461.44;6176973;28;20055;-77
2022/06/24 02:15:10;;;;;;;3.97;2.10;;;;;;;20.18;55.64;100457.09;6176184;28;20221;-76
2022/06/24 02:18:12;;;;;;;2.80;1.73;;;;;;;20.17;55.65;100458.09;6176426;28;20419;-76
2022/06/24 02:21:14;;;;;;;2.03;1.83;;;;;;;20.11;56.02;100453.34;6176291;28;20462;-77
2022/06/24 02:24:17;;;;;;;2.60;2.00;;;;;;;20.12;55.96;100449.72;6175789;28;20057;-77
2022/06/24 02:27:18;;;;;;;2.25;1.90;;;;;;;20.08;56.04;100445.66;6176554;28;20507;-76
2022/06/24 02:30:19;;;;;;;2.65;1.92;;;;;;;20.09;56.21;100438.50;6175907;28;20050;-77
2022/06/24 02:33:21;;;;;;;2.67;1.77;;;;;;;20.08;56.26;100436.81;6176629;28;20050;-75
2022/06/24 02:36:23;;;;;;;2.58;1.92;;;;;;;20.03;56.56;100439.94;6176033;28;20043;-76
2022/06/24 02:39:25;;;;;;;3.22;1.88;;;;;;;19.99;56.64;100436.72;6175961;28;20055;-76
2022/06/24 02:42:27;;;;;;;2.85;1.90;;;;;;;19.96;57.04;100439.69;6175643;28;20046;-76
2022/06/24 02:45:28;;;;;;;2.95;1.70;;;;;;;19.95;56.88;100424.69;6175448;28;20067;-77
2022/06/24 02:48:31;;;;;;;2.30;2.00;;;;;;;19.98;56.53;100427.06;6178435;28;20058;-76
2022/06/24 02:51:32;;;;;;;2.90;2.00;;;;;;;19.99;56.74;100428.72;6199677;28;20058;-76
2022/06/24 02:54:35;;;;;;;1.98;1.75;;;;;;;19.98;56.62;100426.19;6198864;28;20058;-76
2022/06/24 02:57:36;;;;;;;1.88;1.63;;;;;;;19.96;56.81;100422.84;6199772;28;20498;-78
2022/06/24 03:00:39;;;;;;;2.03;1.80;;;;;;;19.92;56.40;100419.63;6199351;28;20046;-77
2022/06/24 03:03:40;;;;;;;2.22;1.70;;;;;;;19.93;56.80;100417.81;6197808;28;20450;-77
2022/06/24 03:06:42;;;;;;;3.22;2.00;;;;;;;20.00;56.43;100414.41;6199229;28;20049;-77
2022/06/24 03:09:44;;;;;;;2.78;2.10;;;;;;;20.02;56.64;100406.22;6198766;28;20058;-76
2022/06/24 03:12:46;;;;;;;1.50;1.40;;;;;;;20.08;55.94;100404.81;6199392;28;20050;-76
2022/06/24 03:15:48;;;;;;;3.28;1.80;;;;;;;20.15;56.14;100405.88;6198799;28;20494;-77
2022/06/24 03:18:49;;;;;;;1.75;1.65;;;;;;;20.20;55.49;100401.75;6199302;28;20561;-76
2022/06/24 03:21:50;;;;;;;2.08;1.88;;;;;;;20.21;55.56;100391.91;6198731;28;20054;-76
2022/06/24 03:24:53;;;;;;;1.65;1.35;;;;;;;20.22;55.30;100389.09;6193867;28;20054;-76
2022/06/24 03:27:54;;;;;;;2.45;1.70;;;;;;;20.16;55.64;100396.84;6174976;28;20055;-76
2022/06/24 03:30:56;;;;;;;1.88;1.65;;;;;;;20.18;55.44;100384.22;6174699;28;20081;-76
2022/06/24 03:33:58;;;;;;;3.10;1.98;;;;;;;20.17;55.53;100382.56;6174267;28;20047;-77
2022/06/24 03:36:59;;;;;;;2.83;1.80;;;;;;;20.23;56.04;100380.09;6174829;28;20057;-78
2022/06/24 03:40:03;;;;;;;1.88;1.60;;;;;;;20.22;55.86;100386.44;6174360;28;20054;-77
2022/06/24 03:43:04;;;;;;;2.15;1.50;;;;;;;20.16;55.74;100378.19;6174405;28;20051;-76
2022/06/24 03:46:06;;;;;;;1.77;1.40;;;;;;;20.15;56.16;100369.34;6174304;28;20495;-76
2022/06/24 03:49:07;;;;;;;2.38;1.63;;;;;;;20.21;55.64;100373.22;6174422;28;20075;-77
2022/06/24 03:52:09;;;;;;;3.50;1.88;;;;;;;20.26;55.58;100371.78;6174145;28;20487;-77
2022/06/24 03:55:12;;;;;;;2.53;1.77;;;;;;;20.31;55.69;100365.16;6174854;28;20046;-76
2022/06/24 03:58:13;;;;;;;2.85;2.05;;;;;;;20.32;55.50;100365.00;6174256;28;20046;-77
2022/06/24 04:01:15;;;;;;;4.07;1.88;;;;;;;20.35;55.63;100366.50;6173964;28;20054;-77
2022/06/24 04:04:16;;;;;;;2.72;1.90;;;;;;;20.40;55.36;100362.41;6173881;28;20069;-76
2022/06/24 04:07:17;;;;;;;1.40;1.30;;;;;;;20.46;55.76;100379.63;6174093;28;20053;-77
2022/06/24 04:10:20;;;;;;;4.80;2.10;;;;;;;20.51;55.51;100380.84;6173875;28;20186;-76
2022/06/24 04:13:21;;;;;;;3.10;1.55;;;;;;;20.54;55.88;100393.06;6174103;28;20051;-77
2022/06/24 04:16:23;;;;;;;2.30;1.73;;;;;;;20.56;55.98;100390.25;6173855;28;20043;-78
2022/06/24 04:19:24;;;;;;;3.28;1.98;;;;;;;20.58;55.91;100385.59;6174092;28;20510;-76
2022/06/24 04:22:25;;;;;;;6.90;1.80;;;;;;;20.57;55.71;100392.75;6172423;28;20062;-77
2022/06/24 04:25:28;;;;;;;1.98;1.70;;;;;;;20.63;54.98;100386.81;6184098;28;20058;-77
2022/06/24 04:28:29;;;;;;;2.13;1.80;;;;;;;20.64;55.81;100379.63;6197928;28;20429;-77
2022/06/24 04:31:31;;;;;;;2.25;1.67;;;;;;;20.65;56.29;100382.13;6197440;28;20395;-75
2022/06/24 04:34:32;;;;;;;2.75;1.83;;;;;;;20.65;56.41;100386.63;6197312;28;20057;-77
2022/06/24 04:37:35;;;;;;;3.03;1.95;;;;;;;20.68;56.63;100384.50;6197870;28;20072;-77
2022/06/24 04:40:38;;;;;;;2.38;1.90;;;;;;;20.68;56.99;100386.34;6197328;28;20140;-76
2022/06/24 04:43:39;;;;;;;2.35;1.33;;;;;;;20.65;57.42;100392.81;6197785;28;20058;-76
2022/06/24 04:46:40;;;;;;;1.63;1.52;;;;;;;20.62;58.00;100384.25;6197473;28;20046;-76
2022/06/24 04:49:42;;;;;;;2.75;1.60;;;;;;;20.60;58.33;100389.78;6197524;28;20077;-77
2022/06/24 04:52:43;;;;;;;3.88;1.73;;;;;;;20.60;58.93;100388.94;6197479;28;20136;-76
2022/06/24 04:55:46;;;;;;;2.28;1.50;;;;;;;20.60;59.04;100400.44;6195435;28;20388;-77
2022/06/24 04:58:47;;;;;;;3.42;1.73;;;;;;;20.62;58.87;100392.28;6197745;28;20058;-76
2022/06/24 05:01:49;;;;;;;3.38;1.95;;;;;;;20.63;58.86;100393.97;6197092;28;20061;-77
2022/06/24 05:04:50;;;;;;;1.63;1.48;;;;;;;20.65;58.71;100395.47;6194103;28;20050;-75
2022/06/24 05:07:51;;;;;;;2.03;1.55;;;;;;;20.65;59.18;100392.81;6183912;28;20046;-76
2022/06/24 05:10:55;;;;;;;4.07;2.20;;;;;;;20.66;59.60;100388.31;6173192;28;20499;-77
2022/06/24 05:13:56;;;;;;;1.73;1.40;;;;;;;20.69;59.42;100394.19;6172932;28;20098;-76
2022/06/24 05:16:57;;;;;;;1.65;1.55;;;;;;;20.72;59.20;100391.22;6183603;28;20054;-76
2022/06/24 05:19:59;;;;;;;3.20;1.88;;;;;;;20.75;59.51;100392.72;6184532;28;20047;-76
2022/06/24 05:23:00;;;;;;;1.98;1.77;;;;;;;20.79;59.09;100394.06;6184765;28;20047;-76
2022/06/24 05:26:03;;;;;;;2.17;1.52;;;;;;;20.82;59.14;100392.94;6183540;28;20043;-76
2022/06/24 05:29:04;;;;;;;1.75;1.40;;;;;;;20.88;58.47;100386.97;6183247;28;20046;-76
2022/06/24 05:32:06;;;;;;;2.85;1.95;;;;;;;20.91;58.62;100390.16;6183897;28;20047;-76
2022/06/24 05:35:08;;;;;;;6.10;1.92;;;;;;;20.98;58.33;100393.03;6187389;28;20058;-76
2022/06/24 05:38:10;;;;;;;1.92;1.65;;;;;;;21.06;58.18;100398.41;6187805;28;20050;-77
2022/06/24 05:41:13;;;;;;;2.35;1.60;;;;;;;21.14;57.82;100390.47;6188000;28;20050;-76
2022/06/24 05:44:14;;;;;;;3.75;1.98;;;;;;;21.23;57.57;100388.66;6186683;28;20042;-76
2022/06/24 05:47:16;;;;;;;1.27;1.08;;;;;;;21.35;57.01;100382.09;6188707;28;20042;-76
2022/06/24 05:50:17;;;;;;;2.08;1.60;;;;;;;21.46;57.20;100388.97;6186207;28;20059;-75
2022/06/24 05:56:39;;;;;;;2.72;2.22;;;;;;;21.65;57.43;100378.00;6186262;28;20054;-76
2022/06/24 05:59:40;;;;;;;2.28;1.83;;;;;;;21.70;57.64;100390.88;6185777;28;20057;-76
2022/06/24 06:02:41;;;;;;;1.80;1.60;;;;;;;21.80;57.45;100380.88;6189001;28;20494;-75
2022/06/24 06:05:43;;;;;;;1.73;1.20;;;;;;;21.84;58.29;100371.53;6185598;28;20054;-77
2022/06/24 06:08:44;;;;;;;4.47;2.45;;;;;;;21.94;57.91;100374.06;6190925;28;20490;-76
2022/06/24 06:11:47;;;;;;;1.45;1.35;;;;;;;22.10;57.33;100368.72;6200487;28;20046;-76
2022/06/24 06:14:49;;;;;;;3.97;1.70;;;;;;;22.24;57.38;100373.44;6200041;28;20057;-76
2022/06/24 06:17:50;;;;;;;2.63;1.27;;;;;;;22.35;57.19;100374.97;6200868;28;20125;-76
2022/06/24 06:20:51;;;;;;;1.95;1.50;;;;;;;22.44;56.35;100373.97;6200427;28;20061;-77
2022/06/24 06:23:53;;;;;;;6.22;1.48;;;;;;;22.56;54.38;100378.97;6198711;28;20049;-76
2022/06/24 06:26:55;;;;;;;5.43;1.98;;;;;;;22.71;54.27;100382.63;6200445;28;20046;-76
2022/06/24 06:29:58;;;;;;;2.58;1.63;;;;;;;22.77;54.98;100390.00;6200356;28;20054;-77
2022/06/24 06:32:59;;;;;;;1.40;1.30;;;;;;;22.85;54.99;100390.00;6200135;28;20065;-76
2022/06/24 06:36:05;;;;;;;1.98;1.60;;;;;;;22.94;54.87;100386.34;6199861;28;20387;-76
2022/06/24 06:39:06;;;;;;;4.43;1.50;;;;;;;22.97;54.48;100383.28;6200284;28;20061;-77
2022/06/24 06:42:09;;;;;;;3.05;1.63;;;;;;;22.98;54.76;100386.81;6199855;28;20065;-76
2022/06/24 06:45:11;;;;;;;3.63;1.40;;;;;;;23.03;54.52;100379.94;6198713;28;20054;-76
2022/06/24 06:48:12;;;;;;;2.33;1.67;;;;;;;23.07;54.80;100385.78;6199913;28;20046;-76
2022/06/24 06:51:13;;;;;;;1.45;1.27;;;;;;;23.18;56.13;100385.44;6199646;28;20053;-76
2022/06/24 06:54:15;;;;;;;2.60;1.38;;;;;;;23.34;56.97;100389.88;6197151;28;20046;-75
2022/06/24 06:57:17;;;;;;;5.72;1.38;;;;;;;23.50;57.68;100392.50;6199852;28;20688;-76
2022/06/24 07:00:20;;;;;;;2.20;1.33;;;;;;;23.61;57.37;100391.28;6199359;28;20050;-76
2022/06/24 07:03:22;;;;;;;1.75;1.20;;;;;;;23.78;58.46;100398.28;6197895;28;20169;-76
2022/06/24 07:06:24;;;;;;;2.55;1.13;;;;;;;23.86;59.87;100392.03;6199195;28;20410;-76
2022/06/24 07:09:25;;;;;;;1.20;1.10;;;;;;;23.87;60.37;100388.31;6193297;28;20042;-76
2022/06/24 07:12:28;;;;;;;2.03;1.00;;;;;;;23.85;61.01;100389.53;6176325;28;20054;-76
2022/06/24 07:15:29;;;;;;;3.70;1.10;;;;;;;23.77;61.91;100387.72;6174830;28;20059;-76
2022/06/24 07:18:31;;;;;;;10.80;1.92;;;;;;;23.68;63.03;100386.09;6174994;28;20567;-75
2022/06/24 07:21:32;;;;;;;1.80;1.10;;;;;;;23.69;63.42;100379.72;6174711;28;20418;-75
2022/06/24 07:24:33;;;;;;;1.77;1.00;;;;;;;23.61;64.24;100380.53;6175780;28;20054;-76
2022/06/24 07:27:36;;;;;;;5.82;1.15;;;;;;;23.61;64.71;100371.66;6175286;28;20054;-75
2022/06/24 07:30:37;;;;;;;2.05;0.95;;;;;;;23.65;65.32;100370.34;6174772;28;20058;-77
2022/06/24 07:33:39;;;;;;;2.22;1.60;;;;;;;23.69;65.58;100372.50;6174571;28;20470;-76
2022/06/24 07:36:40;;;;;;;2.33;0.95;;;;;;;23.75;65.85;100377.16;6174527;28;20047;-76
2022/06/24 07:39:41;;;;;;;6.40;1.05;;;;;;;23.83;65.23;100370.06;6174544;28;20081;-75
2022/06/24 07:42:44;;;;;;;3.15;1.38;;;;;;;23.87;65.53;100371.38;6174566;28;20050;-75
2022/06/24 07:45:45;;;;;;;0.70;0.70;;;;;;;23.96;66.05;100367.63;6182645;28;20046;-75
2022/06/24 07:48:47;;;;;;;1.83;1.08;;;;;;;24.01;65.85;100371.44;6186578;28;20054;-76
2022/06/24 07:51:48;;;;;;;1.60;1.10;;;;;;;23.96;65.45;100360.41;6184209;28;20419;-74
2022/06/24 07:56:56;;;;;;;2.17;1.48;;;;;;;23.94;66.16;100358.94;6184079;28;20046;-75
2022/06/24 07:58:11;;;;;;;2.17;1.10;;;;;;;23.99;65.73;100361.91;6185687;28;20093;-73
2022/06/24 08:01:12;;;;;;;4.50;1.30;;;;;;;24.02;66.74;100358.84;6183274;28;20128;-76
2022/06/24 08:04:14;;;;;;;2.47;1.17;;;;;;;24.10;65.77;100358.81;6185393;28;20058;-75
2022/06/24 08:07:15;;;;;;;1.80;1.10;;;;;;;24.18;66.25;100356.06;6181128;28;20054;-76
2022/06/24 08:10:17;;;;;;;3.72;1.63;;;;;;;24.27;65.52;100348.78;6173917;28;20050;-75
2022/06/24 08:13:19;;;;;;;3.97;1.25;;;;;;;24.25;65.39;100348.13;6173978;28;20050;-76
2022/06/24 08:16:21;;;;;;;2.15;1.35;;;;;;;24.30;65.14;100356.50;6173713;28;20050;-76
2022/06/24 08:19:22;;;;;;;1.77;1.33;;;;;;;24.37;64.80;100346.69;6173980;28;20503;-76
2022/06/24 08:22:24;;;;;;;4.97;1.33;;;;;;;24.43;64.26;100337.06;6173630;28;20051;-75
2022/06/24 08:25:25;;;;;;;2.65;1.33;;;;;;;24.46;64.98;100345.63;6174527;28;20446;-75
2022/06/24 08:28:28;;;;;;;3.00;1.25;;;;;;;24.52;64.39;100341.34;6173936;28;20046;-75
2022/06/24 08:31:29;;;;;;;2.45;1.40;;;;;;;24.53;64.49;100333.13;6176833;28;20498;-75
2022/06/24 08:34:30;;;;;;;2.80;2.10;;;;;;;24.60;65.34;100337.75;6184203;28;20054;-74
2022/06/24 08:37:32;;;;;;;1.50;1.05;;;;;;;24.68;63.57;100326.94;6184233;28;20072;-74
2022/06/24 08:40:33;;;;;;;1.88;1.13;;;;;;;24.71;63.77;100340.84;6193160;28;20050;-75
2022/06/24 08:43:36;;;;;;;2.88;2.08;;;;;;;24.77;63.42;100337.41;6196558;28;20425;-74
2022/06/24 08:46:39;;;;;;;4.50;1.58;;;;;;;24.86;62.85;100340.84;6193720;28;20157;-73
2022/06/24 08:49:41;;;;;;;1.77;1.17;;;;;;;25.00;62.83;100331.97;6192217;28;20046;-72
2022/06/24 08:52:49;;;;;;;2.15;1.20;;;;;;;25.06;61.70;100331.19;6189763;28;20054;-72
2022/06/24 08:55:51;;;;;;;4.57;1.50;;;;;;;25.16;62.26;100330.13;6178426;28;20053;-73
2022/06/24 08:58:54;;;;;;;5.25;2.15;;;;;;;25.15;62.45;100320.38;6195433;28;20049;-74
2022/06/24 09:01:55;;;;;;;1.85;1.30;;;;;;;25.15;62.44;100321.22;6196510;28;20456;-74
2022/06/24 09:05:00;;;;;;;3.35;1.27;;;;;;;25.26;61.46;100312.69;6189164;28;20073;-72
2022/06/24 09:08:05;;;;;;;2.15;1.20;;;;;;;25.25;62.27;100329.84;6199423;28;20058;-72
2022/06/24 09:11:08;;;;;;;1.92;1.30;;;;;;;25.20;62.11;100328.72;6201837;28;20054;-73
2022/06/24 09:14:11;;;;;;;3.92;1.05;;;;;;;25.15;61.71;100331.13;6201637;28;20069;-73
2022/06/24 09:17:12;;;;;;;4.00;1.77;;;;;;;25.08;61.45;100319.47;6198775;28;20501;-73
2022/06/24 09:20:16;;;;;;;2.15;1.10;;;;;;;25.10;61.33;100325.50;6196674;28;20507;-73
2022/06/24 09:23:17;;;;;;;1.65;0.90;;;;;;;25.09;60.66;100331.91;6178781;28;20055;-73
2022/06/24 09:26:29;;;;;;;1.27;0.93;;;;;;;25.05;61.00;100320.63;6179601;28;20057;-72
2022/06/24 09:29:32;;;;;;;1.40;1.10;;;;;;;25.11;60.74;100309.16;6179731;28;20069;-72
2022/06/24 09:32:33;;;;;;;2.17;0.80;;;;;;;25.08;61.32;100323.00;6160071;28;20062;-72
2022/06/24 09:35:36;;;;;;;2.55;1.35;;;;;;;25.10;61.92;100310.19;6176624;28;20054;-73
2022/06/24 09:38:54;;;;;;;1.83;0.80;;;;;;;25.22;59.54;100310.56;6177558;28;20047;-72
2022/06/24 09:41:55;;;;;;;1.40;0.77;;;;;;;25.27;59.82;100322.41;6169457;28;20154;-72
2022/06/24 09:44:58;;;;;;;4.85;1.10;;;;;;;25.30;58.58;100318.53;6168503;28;20414;-72
2022/06/24 09:48:00;;;;;;;1.80;0.75;;;;;;;25.31;58.38;100325.56;6177277;28;20051;-72
2022/06/24 09:51:03;;;;;;;2.95;0.90;;;;;;;25.27;58.94;100329.66;6168557;28;20061;-72
2022/06/24 09:54:05;;;;;;;5.53;0.90;;;;;;;25.20;59.42;100318.78;6176241;28;20043;-73
2022/06/24 09:57:08;;;;;;;1.85;1.00;;;;;;;25.21;60.55;100325.03;6176969;28;20058;-72
2022/06/24 10:03:33;;;;;;;1.27;0.80;;;;;;;25.20;59.00;100324.16;6176892;28;20086;-72
2022/06/24 10:06:37;;;;;;;1.90;0.82;;;;;;;25.25;58.75;100321.78;6176816;28;20046;-73
2022/06/24 10:09:38;;;;;;;1.27;0.88;;;;;;;25.30;58.59;100330.13;6176968;28;20062;-72
2022/06/24 10:12:44;;;;;;;1.38;1.08;;;;;;;25.40;58.58;100331.69;6176836;28;20055;-73
2022/06/24 10:15:46;;;;;;;2.33;1.20;;;;;;;25.47;57.55;100327.19;6176291;28;20065;-72
2022/06/24 10:18:50;;;;;;;1.17;1.08;;;;;;;25.51;58.33;100329.31;6176328;28;20050;-73
2022/06/24 10:21:51;;;;;;;1.98;0.80;;;;;;;25.57;58.41;100335.78;6176237;28;20058;-73
2022/06/24 10:24:53;;;;;;;1.88;0.90;;;;;;;25.67;58.98;100336.34;6160533;28;20054;-73
2022/06/24 10:28:09;;;;;;;0.95;0.80;;;;;;;25.75;58.08;100335.38;6152445;29;20423;-73
2022/06/24 10:31:12;;;;;;;1.88;0.85;;;;;;;25.83;56.94;100337.97;6151758;29;20051;-73
2022/06/24 10:34:28;;;;;;;3.38;1.08;;;;;;;25.82;57.56;100330.94;6151880;28;20061;-73
2022/06/24 10:37:30;;;;;;;4.32;1.90;;;;;;;25.74;57.99;100339.09;6151994;29;20051;-73
2022/06/24 10:40:32;;;;;;;1.63;0.70;;;;;;;25.56;57.44;100342.19;6152014;29;20043;-73
2022/06/24 10:43:35;;;;;;;1.83;0.75;;;;;;;25.43;58.91;100352.81;6151813;29;20070;-73
2022/06/24 10:46:37;;;;;;;2.08;1.00;;;;;;;25.34;59.75;100356.63;6151736;29;20047;-73
2022/06/24 10:50:04;;;;;;;4.22;0.85;;;;;;;25.24;59.48;100336.22;6151603;29;20047;-72
2022/06/24 10:53:06;;;;;;;2.55;0.73;;;;;;;25.25;59.50;100332.53;6144799;28;20058;-73
2022/06/24 10:56:08;;;;;;;1.98;0.90;;;;;;;25.26;60.38;100328.81;6151389;29;20055;-73
2022/06/24 10:59:10;;;;;;;0.82;0.60;;;;;;;25.29;60.38;100332.97;6151643;29;20050;-72
2022/06/24 11:02:13;;;;;;;1.23;0.98;;;;;;;25.34;58.88;100340.47;6151202;29;20047;-73
2022/06/24 11:05:17;;;;;;;1.95;0.70;;;;;;;25.40;56.61;100343.28;6151333;28;20051;-73
2022/06/24 11:08:20;;;;;;;13.65;7.63;;;;;;;25.29;57.29;100351.81;6170566;28;20061;-73
2022/06/24 11:11:28;;;;;;;2.75;1.30;;;;;;;25.17;58.62;100361.38;6152364;28;20058;-73
2022/06/24 11:14:29;;;;;;;1.15;1.05;;;;;;;25.02;59.44;100367.53;6149816;28;20051;-73
2022/06/24 11:17:32;;;;;;;1.98;0.90;;;;;;;24.86;65.02;100380.34;6160921;28;20050;-73
2022/06/24 11:20:37;;;;;;;1.00;0.80;;;;;;;24.37;73.15;100375.41;6167416;28;20055;-73
2022/06/24 11:23:40;;;;;;;0.98;0.70;;;;;;;23.97;76.62;100371.97;6166965;28;20057;-72
2022/06/24 11:26:41;;;;;;;0.85;0.77;;;;;;;23.83;79.42;100373.59;6151010;28;20447;-73
2022/06/24 11:29:50;;;;;;;1.17;0.75;;;;;;;23.91;78.48;100370.03;6163112;28;20051;-72
2022/06/24 11:32:53;;;;;;;5.87;1.40;;;;;;;23.97;77.27;100380.03;6174675;28;20057;-72
2022/06/24 11:35:55;;;;;;;1.50;0.63;;;;;;;24.02;74.12;100366.91;6174575;28;20286;-72
2022/06/24 11:38:58;;;;;;;0.77;0.77;;;;;;;24.11;73.75;100370.38;6174778;28;20046;-73
2022/06/24 11:41:59;;;;;;;1.55;0.80;;;;;;;24.20;71.39;100369.31;6165983;28;20097;-73
2022/06/24 11:45:01;;;;;;;1.92;0.75;;;;;;;24.34;72.55;100368.50;6173983;28;20426;-72
2022/06/24 11:48:04;;;;;;;0.68;0.65;;;;;;;24.48;71.81;100361.53;6159418;28;20051;-72
2022/06/24 11:51:17;;;;;;;2.90;0.98;;;;;;;24.54;70.92;100358.97;6150652;29;20139;-72
2022/06/24 11:54:19;;;;;;;3.65;0.82;;;;;;;24.57;71.82;100354.25;6150078;29;20055;-73
2022/06/24 11:57:21;;;;;;;2.35;0.98;;;;;;;24.56;69.95;100358.78;6150346;29;20055;-73
2022/06/24 12:00:24;;;;;;;3.00;1.25;;;;;;;24.48;70.73;100362.41;6150040;29;20055;-73
2022/06/24 12:03:27;;;;;;;3.90;1.05;;;;;;;24.42;72.05;100365.78;6150398;29;20062;-73
2022/06/24 12:06:30;;;;;;;1.70;0.95;;;;;;;24.41;73.35;100355.25;6149897;29;20051;-72
2022/06/24 12:09:31;;;;;;;3.05;0.88;;;;;;;24.40;73.46;100356.25;6150282;29;20182;-71
2022/06/24 12:12:33;;;;;;;1.27;0.93;;;;;;;24.47;72.75;100352.66;6149753;29;20051;-72
2022/06/24 12:15:52;;;;;;;2.80;1.08;;;;;;;24.49;72.11;100349.81;6149864;29;20059;-72
2022/06/24 12:18:55;;;;;;;2.70;1.30;;;;;;;24.55;72.32;100354.44;6151077;28;20047;-72
2022/06/24 12:22:08;;;;;;;4.03;2.65;;;;;;;24.61;72.37;100347.50;6149740;28;20050;-73
2022/06/24 12:25:11;;;;;;;1.73;1.30;;;;;;;24.85;72.22;100347.25;6149532;29;20055;-73
2022/06/24 12:28:23;;;;;;;3.33;1.10;;;;;;;25.26;69.34;100333.38;6149780;29;20069;-73
2022/06/24 12:31:24;;;;;;;1.42;0.90;;;;;;;25.51;67.19;100325.78;6149722;28;20055;-73
2022/06/24 12:34:29;;;;;;;1.67;1.23;;;;;;;25.64;65.31;100319.72;6149312;28;20639;-73
2022/06/24 12:37:30;;;;;;;1.40;0.88;;;;;;;25.73;66.14;100319.41;6149714;29;20051;-73
2022/06/24 12:40:31;;;;;;;1.33;0.90;;;;;;;25.77;65.05;100319.91;6149251;29;20499;-73
2022/06/24 12:43:32;;;;;;;0.95;0.73;;;;;;;25.78;64.71;100308.94;6152486;28;20055;-73
2022/06/24 12:50:34;;;;;;;1.05;0.77;;;;;;;25.77;62.87;100301.91;6160058;28;20046;-73
2022/06/24 12:53:27;;;;;;;1.63;0.75;;;;;;;25.58;62.42;100294.41;6154510;29;20055;-73
2022/06/24 12:56:32;;;;;;;0.70;0.70;;;;;;;25.60;63.39;100292.34;6153922;29;20062;-72
2022/06/24 12:59:33;;;;;;;1.73;1.23;;;;;;;25.61;64.45;100299.41;6154623;29;20044;-73
2022/06/24 13:02:35;;;;;;;0.85;0.80;;;;;;;25.60;63.32;100299.59;6153776;29;20420;-73
2022/06/24 13:05:37;;;;;;;2.25;0.70;;;;;;;25.54;62.32;100301.22;6154343;29;20047;-73
2022/06/24 13:08:39;;;;;;;2.67;1.42;;;;;;;25.61;63.58;100304.78;6154235;29;20077;-72
2022/06/24 13:11:40;;;;;;;1.00;0.60;;;;;;;25.75;61.02;100306.63;6153794;28;20051;-73
2022/06/24 13:14:42;;;;;;;2.75;0.50;;;;;;;25.76;59.65;100311.00;6153545;28;20059;-73
2022/06/24 13:17:43;;;;;;;3.08;1.17;;;;;;;25.79;59.30;100304.38;6169583;28;20066;-72
2022/06/24 13:20:46;;;;;;;1.88;0.60;;;;;;;25.93;59.25;100305.34;6177748;28;20483;-73
2022/06/24 13:23:48;;;;;;;1.20;0.52;;;;;;;25.96;56.93;100305.81;6176403;28;20061;-72
2022/06/24 13:26:50;;;;;;;1.65;1.00;;;;;;;26.00;57.06;100304.41;6163344;28;20526;-73
2022/06/24 13:29:51;;;;;;;1.05;0.95;;;;;;;26.06;57.45;100308.16;6162538;28;20046;-73
2022/06/24 13:32:53;;;;;;;1.00;0.65;;;;;;;26.10;56.28;100311.31;6158163;28;20051;-73
2022/06/24 13:35:55;;;;;;;1.40;0.65;;;;;;;26.10;55.00;100297.84;6153144;29;20055;-73
2022/06/24 13:38:57;;;;;;;4.70;0.70;;;;;;;26.06;54.33;100309.00;6153639;28;20051;-73
2022/06/24 13:41:59;;;;;;;0.55;0.55;;;;;;;26.09;53.89;100309.66;6159224;28;20399;-72
2022/06/24 13:45:00;;;;;;;1.23;0.77;;;;;;;26.11;52.29;100299.50;6163021;28;20065;-73
2022/06/24 13:48:06;;;;;;;1.25;0.80;;;;;;;26.14;51.95;100309.91;6172232;28;20046;-73
2022/06/24 13:51:08;;;;;;;0.85;0.77;;;;;;;26.11;52.27;100294.94;6168781;28;20047;-73
2022/06/24 13:54:10;;;;;;;0.70;0.70;;;;;;;26.20;52.91;100287.56;6176246;28;20458;-73
2022/06/24 13:57:11;;;;;;;0.50;0.50;;;;;;;26.25;52.99;100295.88;6177121;28;20050;-73
2022/06/24 14:00:13;;;;;;;1.23;0.82;;;;;;;26.25;53.44;100299.44;6176771;28;20046;-73
2022/06/24 14:03:14;;;;;;;0.88;0.75;;;;;;;26.33;52.23;100294.91;6176909;28;20058;-73
2022/06/24 14:06:17;;;;;;;1.88;0.63;;;;;;;26.33;53.45;100293.06;6176631;28;20062;-72
2022/06/24 14:09:18;;;;;;;5.40;1.05;;;;;;;26.37;52.37;100297.03;6176842;28;20517;-73
2022/06/24 14:12:20;;;;;;;3.95;1.17;;;;;;;26.37;51.07;100294.34;6168335;28;20066;-73
2022/06/24 14:15:21;;;;;;;2.03;0.98;;;;;;;26.41;51.49;100278.63;6176173;28;20046;-72
2022/06/24 14:18:22;;;;;;;3.03;0.60;;;;;;;26.44;52.81;100283.66;6153567;28;20047;-73
2022/06/24 14:21:25;;;;;;;0.77;0.70;;;;;;;26.46;52.92;100281.56;6152199;29;20055;-73